Time;durP1;ratioP1;P1;durP2;ratioP2;P2;SDS_P1;SDS_P2;PMS_P1;PMS_P2;Temp;Humidity;BMP_temperature;BMP_pressure;BME280_temperature;BME280_humidity;BME280_pressure;Samples;Min_cycle;Max_cycle;Signal;HPM_P1;HPM_P2
2022/01/09 00:00:42;;;;;;;;;;;19.90;36.10;;;;;;5075527;28;20443;-59
2022/01/09 00:03:08;;;;;;;;;;;19.80;36.10;;;;;;5075475;28;19962;-59
2022/01/09 00:05:34;;;;;;;;;;;19.80;36.10;;;;;;5075433;28;19908;-59
2022/01/09 00:07:59;;;;;;;;;;;19.80;36.10;;;;;;5075379;28;20288;-59
2022/01/09 00:10:27;;;;;;;;;;;19.80;36.10;;;;;;5075224;28;19909;-60
2022/01/09 00:12:52;;;;;;;;;;;19.80;36.10;;;;;;5075306;28;19924;-63
2022/01/09 00:15:18;;;;;;;;;;;19.80;36.10;;;;;;5075161;28;19916;-59
2022/01/09 00:17:43;;;;;;;;;;;19.70;36.10;;;;;;5075349;28;19909;-59
2022/01/09 00:20:10;;;;;;;;;;;19.80;36.10;;;;;;5075549;28;20363;-60
2022/01/09 00:22:44;;;;;;;;;;;19.70;36.10;;;;;;5075056;28;19912;-60
2022/01/09 00:25:10;;;;;;;;;;;19.70;36.20;;;;;;5075037;28;19909;-59
2022/01/09 00:27:38;;;;;;;;;;;19.70;36.10;;;;;;5074918;28;19970;-59
2022/01/09 00:30:05;;;;;;;;;;;19.70;36.20;;;;;;5075065;28;19909;-59
2022/01/09 00:32:30;;;;;;;;;;;19.70;36.20;;;;;;5075187;28;19909;-59
2022/01/09 00:34:56;;;;;;;;;;;19.70;36.20;;;;;;5075017;28;19921;-57
2022/01/09 00:37:21;;;;;;;;;;;19.70;36.20;;;;;;5074786;28;19908;-59
2022/01/09 00:39:46;;;;;;;;;;;19.70;36.20;;;;;;5074955;28;19916;-59
2022/01/09 00:42:12;;;;;;;;;;;19.70;36.20;;;;;;5074999;28;19990;-58
2022/01/09 00:44:37;;;;;;;;;;;19.70;36.20;;;;;;5074670;28;20003;-59
2022/01/09 00:47:03;;;;;;;;;;;19.70;36.20;;;;;;5074758;28;20364;-59
2022/01/09 00:49:28;;;;;;;;;;;19.70;36.20;;;;;;5074476;28;19912;-59
2022/01/09 00:51:54;;;;;;;;;;;19.70;36.20;;;;;;5074477;28;20368;-59
2022/01/09 00:54:20;;;;;;;;;;;19.70;36.20;;;;;;5074356;28;19916;-59
2022/01/09 00:56:45;;;;;;;;;;;19.70;36.20;;;;;;5074418;28;19909;-59
2022/01/09 00:59:11;;;;;;;;;;;19.60;36.20;;;;;;5074219;28;20326;-60
2022/01/09 01:01:36;;;;;;;;;;;19.60;36.20;;;;;;5074312;28;19920;-59
2022/01/09 01:04:02;;;;;;;;;;;19.70;36.20;;;;;;5074226;28;19908;-60
2022/01/09 01:06:27;;;;;;;;;;;19.60;36.30;;;;;;5074190;28;19908;-60
2022/01/09 01:08:53;;;;;;;;;;;19.60;36.30;;;;;;5074198;28;19909;-59
2022/01/09 01:11:20;;;;;;;;;;;19.60;36.30;;;;;;5074139;28;19954;-59
2022/01/09 01:13:45;;;;;;;;;;;19.60;36.30;;;;;;5074547;28;19908;-59
2022/01/09 01:16:11;;;;;;;;;;;19.60;36.30;;;;;;5074055;28;19913;-60
2022/01/09 01:18:37;;;;;;;;;;;19.60;36.30;;;;;;5074019;28;19913;-60
2022/01/09 01:21:02;;;;;;;;;;;19.60;36.30;;;;;;5073947;28;19999;-59
2022/01/09 01:23:28;;;;;;;;;;;19.60;36.30;;;;;;5073916;28;19951;-59
2022/01/09 01:25:53;;;;;;;;;;;19.60;36.30;;;;;;5073892;28;19908;-59
2022/01/09 01:28:19;;;;;;;;;;;19.60;36.30;;;;;;5073850;28;19908;-59
2022/01/09 01:30:44;;;;;;;;;;;19.60;36.30;;;;;;5073782;28;19955;-59
2022/01/09 01:33:10;;;;;;;;;;;19.60;36.40;;;;;;5073787;28;20007;-59
2022/01/09 01:35:35;;;;;;;;;;;19.50;36.40;;;;;;5073567;28;19923;-59
2022/01/09 01:38:01;;;;;;;;;;;19.60;36.40;;;;;;5073955;28;20426;-58
2022/01/09 01:40:26;;;;;;;;;;;19.50;36.40;;;;;;5073920;28;20436;-58
2022/01/09 01:42:52;;;;;;;;;;;19.50;36.40;;;;;;5073704;28;19995;-59
2022/01/09 01:45:17;;;;;;;;;;;19.50;36.40;;;;;;5073642;28;20364;-58
2022/01/09 01:47:43;;;;;;;;;;;19.50;36.40;;;;;;5073610;28;20280;-59
2022/01/09 01:50:11;;;;;;;;;;;19.50;36.50;;;;;;5073493;28;19908;-59
2022/01/09 01:52:41;;;;;;;;;;;19.50;36.50;;;;;;5073534;28;19962;-59
2022/01/09 01:55:08;;;;;;;;;;;19.50;36.50;;;;;;5073318;28;19920;-59
2022/01/09 01:57:34;;;;;;;;;;;19.50;36.50;;;;;;5073493;28;19962;-59
2022/01/09 02:00:00;;;;;;;;;;;19.50;36.50;;;;;;5072755;28;19925;-59
2022/01/09 02:02:26;;;;;;;;;;;19.50;36.50;;;;;;5073367;28;20348;-58
2022/01/09 02:04:52;;;;;;;;;;;19.50;36.50;;;;;;5073323;28;19962;-57
2022/01/09 02:07:17;;;;;;;;;;;19.50;36.50;;;;;;5073337;28;19912;-58
2022/01/09 02:09:44;;;;;;;;;;;19.50;36.50;;;;;;5073346;28;19909;-58
2022/01/09 02:12:10;;;;;;;;;;;19.50;36.60;;;;;;5073325;28;19944;-58
2022/01/09 02:14:36;;;;;;;;;;;19.50;36.60;;;;;;5073175;28;19963;-59
2022/01/09 02:17:02;;;;;;;;;;;19.50;36.60;;;;;;5073294;28;19913;-58
2022/01/09 02:19:28;;;;;;;;;;;19.50;36.60;;;;;;5073164;28;19908;-58
2022/01/09 02:21:55;;;;;;;;;;;19.50;36.60;;;;;;5073217;28;19923;-58
2022/01/09 02:24:23;;;;;;;;;;;19.50;36.60;;;;;;5073218;28;19908;-58
2022/01/09 02:26:48;;;;;;;;;;;19.50;36.60;;;;;;5073576;28;19908;-59
2022/01/09 02:29:14;;;;;;;;;;;19.50;36.60;;;;;;5073204;28;20431;-58
2022/01/09 02:31:39;;;;;;;;;;;19.40;36.60;;;;;;5073192;28;19943;-58
2022/01/09 02:34:05;;;;;;;;;;;19.50;36.60;;;;;;5073060;28;19962;-59
2022/01/09 02:36:30;;;;;;;;;;;19.50;36.60;;;;;;5072997;28;20360;-59
2022/01/09 02:38:56;;;;;;;;;;;19.50;36.60;;;;;;5073156;28;19913;-59
2022/01/09 02:41:21;;;;;;;;;;;19.40;36.70;;;;;;5055075;28;20011;-58
2022/01/09 02:43:47;;;;;;;;;;;19.50;36.70;;;;;;5073030;28;19909;-58
2022/01/09 02:46:28;;;;;;;;;;;19.50;36.70;;;;;;5071762;28;19908;-58
2022/01/09 02:48:54;;;;;;;;;;;19.40;36.80;;;;;;5073174;28;19908;-59
2022/01/09 02:51:19;;;;;;;;;;;19.40;36.80;;;;;;5072949;28;19962;-58
2022/01/09 02:53:47;;;;;;;;;;;19.40;36.80;;;;;;5072802;28;19909;-59
2022/01/09 02:56:13;;;;;;;;;;;19.40;36.80;;;;;;5072939;28;19954;-58
2022/01/09 02:58:39;;;;;;;;;;;19.40;36.80;;;;;;5072703;28;19921;-58
2022/01/09 03:01:07;;;;;;;;;;;19.40;36.80;;;;;;5072778;28;20322;-59
2022/01/09 03:03:32;;;;;;;;;;;19.40;36.90;;;;;;5072839;28;19916;-58
2022/01/09 03:05:58;;;;;;;;;;;19.40;36.90;;;;;;5072758;28;20276;-58
2022/01/09 03:08:23;;;;;;;;;;;19.40;36.90;;;;;;5072790;28;19909;-58
2022/01/09 03:10:49;;;;;;;;;;;19.40;36.90;;;;;;5072805;28;19959;-58
2022/01/09 03:13:14;;;;;;;;;;;19.40;36.90;;;;;;5075610;28;19908;-58
2022/01/09 03:15:40;;;;;;;;;;;19.40;37.00;;;;;;5076283;28;19920;-59
2022/01/09 03:18:05;;;;;;;;;;;19.40;37.00;;;;;;5076520;28;19909;-59
2022/01/09 03:20:31;;;;;;;;;;;19.40;37.00;;;;;;5076460;28;19913;-59
2022/01/09 03:22:56;;;;;;;;;;;19.30;37.00;;;;;;5076195;28;19919;-59
2022/01/09 03:25:23;;;;;;;;;;;19.30;37.00;;;;;;5076244;28;19909;-58
2022/01/09 03:27:49;;;;;;;;;;;19.30;37.00;;;;;;5076214;28;19954;-58
2022/01/09 03:30:16;;;;;;;;;;;19.30;37.00;;;;;;5076332;28;19909;-59
2022/01/09 03:32:42;;;;;;;;;;;19.30;37.00;;;;;;5076099;28;20379;-58
2022/01/09 03:35:09;;;;;;;;;;;19.30;37.10;;;;;;5075954;28;20007;-59
2022/01/09 03:37:35;;;;;;;;;;;19.30;37.10;;;;;;5076077;28;20027;-58
2022/01/09 03:40:00;;;;;;;;;;;19.30;37.10;;;;;;5075937;28;20421;-58
2022/01/09 03:42:26;;;;;;;;;;;19.30;37.10;;;;;;5075919;28;19919;-58
2022/01/09 03:44:51;;;;;;;;;;;19.30;37.10;;;;;;5075848;28;19912;-59
2022/01/09 03:47:17;;;;;;;;;;;19.30;37.10;;;;;;5076026;28;19909;-59
2022/01/09 03:49:42;;;;;;;;;;;19.30;37.20;;;;;;5075758;28;20054;-58
2022/01/09 03:52:07;;;;;;;;;;;19.30;37.20;;;;;;5075763;28;20292;-59
2022/01/09 03:54:36;;;;;;;;;;;19.30;37.20;;;;;;5075740;28;20003;-59
2022/01/09 03:57:02;;;;;;;;;;;19.30;37.20;;;;;;5075643;28;19915;-58
2022/01/09 03:59:27;;;;;;;;;;;19.20;37.20;;;;;;5075344;28;19920;-58
2022/01/09 04:01:54;;;;;;;;;;;19.20;37.20;;;;;;5075575;28;19908;-58
2022/01/09 04:04:20;;;;;;;;;;;19.20;37.20;;;;;;5075498;28;19944;-58
2022/01/09 04:06:48;;;;;;;;;;;19.20;37.20;;;;;;5075475;28;19909;-58
2022/01/09 04:09:20;;;;;;;;;;;19.20;37.20;;;;;;5075709;28;19999;-58
2022/01/09 04:11:49;;;;;;;;;;;19.20;37.30;;;;;;5075617;28;20343;-58
2022/01/09 04:14:14;;;;;;;;;;;19.20;37.20;;;;;;5075492;28;20340;-59
2022/01/09 04:16:40;;;;;;;;;;;19.20;37.30;;;;;;5075539;28;19940;-58
2022/01/09 04:19:05;;;;;;;;;;;19.20;37.30;;;;;;5075245;28;20029;-58
2022/01/09 04:21:31;;;;;;;;;;;19.20;37.30;;;;;;5075213;28;20334;-59
2022/01/09 04:23:56;;;;;;;;;;;19.20;37.30;;;;;;5074706;28;20390;-59
2022/01/09 04:26:22;;;;;;;;;;;19.20;37.30;;;;;;5075305;28;19908;-58
2022/01/09 04:28:47;;;;;;;;;;;19.20;37.30;;;;;;5074970;28;20365;-59
2022/01/09 04:31:13;;;;;;;;;;;19.20;37.40;;;;;;5074980;28;19909;-58
2022/01/09 04:33:40;;;;;;;;;;;19.20;37.40;;;;;;5075137;28;19909;-58
2022/01/09 04:36:05;;;;;;;;;;;19.20;37.40;;;;;;5074894;28;20540;-58
2022/01/09 04:38:30;;;;;;;;;;;19.20;37.40;;;;;;5057000;28;19908;-59
2022/01/09 04:40:56;;;;;;;;;;;19.20;37.40;;;;;;5074698;28;19913;-58
2022/01/09 04:43:22;;;;;;;;;;;19.10;37.40;;;;;;5075006;28;19908;-58
2022/01/09 04:45:47;;;;;;;;;;;19.10;37.40;;;;;;5074925;28;20003;-59
2022/01/09 04:48:14;;;;;;;;;;;19.20;37.50;;;;;;5074679;28;19997;-58
2022/01/09 04:50:42;;;;;;;;;;;19.20;37.50;;;;;;5074550;28;19915;-58
2022/01/09 04:53:09;;;;;;;;;;;19.10;37.50;;;;;;5074778;28;19915;-58
2022/01/09 04:55:35;;;;;;;;;;;19.10;37.50;;;;;;5074082;28;19916;-58
2022/01/09 04:58:01;;;;;;;;;;;19.20;37.50;;;;;;5074277;28;19916;-59
2022/01/09 05:00:26;;;;;;;;;;;19.20;37.50;;;;;;5074427;28;20350;-58
2022/01/09 05:02:52;;;;;;;;;;;19.10;37.50;;;;;;5074260;28;19909;-58
2022/01/09 05:05:18;;;;;;;;;;;19.20;37.50;;;;;;5074382;28;19927;-58
2022/01/09 05:07:44;;;;;;;;;;;19.20;37.50;;;;;;5074252;28;19909;-58
2022/01/09 05:10:10;;;;;;;;;;;19.20;37.50;;;;;;5074142;28;20028;-59
2022/01/09 05:12:35;;;;;;;;;;;19.10;37.50;;;;;;5074092;28;19908;-59
2022/01/09 05:15:02;;;;;;;;;;;19.20;37.50;;;;;;5074195;28;20003;-59
2022/01/09 05:17:27;;;;;;;;;;;19.20;37.50;;;;;;5073982;28;19915;-58
2022/01/09 05:19:57;;;;;;;;;;;19.20;37.50;;;;;;5074077;28;19909;-59
2022/01/09 05:22:27;;;;;;;;;;;19.20;37.50;;;;;;5073948;28;20366;-58
2022/01/09 05:24:54;;;;;;;;;;;19.20;37.50;;;;;;5073837;28;20435;-58
2022/01/09 05:27:20;;;;;;;;;;;19.20;37.50;;;;;;5074102;28;20311;-58
2022/01/09 05:29:45;;;;;;;;;;;19.30;37.50;;;;;;5074012;28;20121;-58
2022/01/09 05:32:11;;;;;;;;;;;19.30;37.50;;;;;;5073930;28;19909;-58
2022/01/09 05:34:36;;;;;;;;;;;19.40;37.40;;;;;;5071614;28;19923;-58
2022/01/09 05:37:04;;;;;;;;;;;19.40;37.40;;;;;;5073757;28;19953;-58
2022/01/09 05:39:30;;;;;;;;;;;19.40;37.40;;;;;;5073694;28;20344;-58
2022/01/09 05:41:56;;;;;;;;;;;19.40;37.40;;;;;;5073681;28;20507;-59
2022/01/09 05:44:21;;;;;;;;;;;19.40;37.30;;;;;;5073957;28;19959;-58
2022/01/09 05:46:47;;;;;;;;;;;19.40;37.40;;;;;;5073866;28;20314;-59
2022/01/09 05:49:13;;;;;;;;;;;19.50;37.40;;;;;;5073671;28;19970;-58
2022/01/09 05:51:38;;;;;;;;;;;19.50;37.40;;;;;;5073537;28;19908;-58
2022/01/09 05:54:04;;;;;;;;;;;19.50;37.40;;;;;;5073459;28;19922;-58
2022/01/09 05:56:29;;;;;;;;;;;19.50;37.30;;;;;;5073402;28;19937;-58
2022/01/09 05:58:55;;;;;;;;;;;19.50;37.30;;;;;;5055399;28;19918;-58
2022/01/09 06:01:20;;;;;;;;;;;19.50;37.40;;;;;;5073452;28;20005;-58
2022/01/09 06:03:46;;;;;;;;;;;19.60;37.40;;;;;;5073564;28;19909;-58
2022/01/09 06:06:11;;;;;;;;;;;19.50;37.40;;;;;;5073671;28;19915;-58
2022/01/09 06:08:36;;;;;;;;;;;19.50;37.40;;;;;;5073808;28;19913;-58
2022/01/09 06:11:02;;;;;;;;;;;19.50;37.40;;;;;;5073398;28;20368;-58
2022/01/09 06:13:27;;;;;;;;;;;19.60;37.40;;;;;;5073472;28;19908;-58
2022/01/09 06:15:53;;;;;;;;;;;19.60;37.40;;;;;;5071992;28;20283;-59
2022/01/09 06:18:19;;;;;;;;;;;19.60;37.40;;;;;;5073273;28;19956;-58
2022/01/09 06:20:45;;;;;;;;;;;19.60;37.50;;;;;;5073248;28;19916;-58
2022/01/09 06:23:10;;;;;;;;;;;19.60;37.40;;;;;;5073168;28;19909;-58
2022/01/09 06:25:35;;;;;;;;;;;19.60;37.40;;;;;;5073402;28;19909;-58
2022/01/09 06:28:01;;;;;;;;;;;19.60;37.50;;;;;;5073327;28;19917;-58
2022/01/09 06:30:26;;;;;;;;;;;19.60;37.40;;;;;;5073139;28;19916;-58
2022/01/09 06:32:52;;;;;;;;;;;19.60;37.40;;;;;;5073186;28;19915;-59
2022/01/09 06:35:17;;;;;;;;;;;19.70;37.50;;;;;;5073083;28;20043;-59
2022/01/09 06:37:43;;;;;;;;;;;19.70;37.40;;;;;;5073050;28;19944;-59
2022/01/09 06:40:09;;;;;;;;;;;19.70;37.40;;;;;;5073090;28;20359;-58
2022/01/09 06:42:34;;;;;;;;;;;19.70;37.40;;;;;;5073291;28;19908;-58
2022/01/09 06:44:59;;;;;;;;;;;19.70;37.40;;;;;;5072990;28;19913;-58
2022/01/09 06:47:25;;;;;;;;;;;19.70;37.40;;;;;;5076392;28;19912;-59
2022/01/09 06:49:50;;;;;;;;;;;19.80;37.40;;;;;;5076863;28;19909;-58
2022/01/09 06:52:16;;;;;;;;;;;19.80;37.40;;;;;;5076854;28;20170;-59
2022/01/09 06:54:41;;;;;;;;;;;19.80;37.40;;;;;;5076772;28;19919;-59
2022/01/09 06:57:07;;;;;;;;;;;19.80;37.40;;;;;;5076750;28;19913;-59
2022/01/09 06:59:32;;;;;;;;;;;19.80;37.40;;;;;;5076518;28;19920;-58
2022/01/09 07:01:58;;;;;;;;;;;19.80;37.40;;;;;;5076795;28;19908;-58
2022/01/09 07:04:23;;;;;;;;;;;19.80;37.40;;;;;;5076661;28;19909;-58
2022/01/09 07:06:49;;;;;;;;;;;19.90;37.40;;;;;;5076483;28;19909;-58
2022/01/09 07:09:14;;;;;;;;;;;19.90;37.40;;;;;;5076587;28;19908;-58
2022/01/09 07:11:39;;;;;;;;;;;19.90;37.40;;;;;;5076704;28;19915;-58
2022/01/09 07:14:05;;;;;;;;;;;19.90;37.40;;;;;;5076376;28;19916;-59
2022/01/09 07:16:31;;;;;;;;;;;19.90;37.40;;;;;;5076471;28;19909;-59
2022/01/09 07:18:56;;;;;;;;;;;19.90;37.40;;;;;;5076649;28;19965;-59
2022/01/09 07:21:22;;;;;;;;;;;19.90;37.40;;;;;;5076082;28;19909;-59
2022/01/09 07:23:47;;;;;;;;;;;20.00;37.40;;;;;;5076193;28;20328;-58
2022/01/09 07:26:12;;;;;;;;;;;20.00;37.40;;;;;;5076406;28;19909;-58
2022/01/09 07:28:38;;;;;;;;;;;20.00;37.40;;;;;;5076427;28;19951;-59
2022/01/09 07:31:03;;;;;;;;;;;20.00;37.40;;;;;;5076084;28;19909;-58
2022/01/09 07:33:30;;;;;;;;;;;20.00;37.40;;;;;;5076109;28;19908;-58
2022/01/09 07:35:56;;;;;;;;;;;20.00;37.40;;;;;;5076139;28;19921;-59
2022/01/09 07:38:21;;;;;;;;;;;20.00;37.40;;;;;;5076240;28;20387;-59
2022/01/09 07:40:47;;;;;;;;;;;20.00;37.40;;;;;;5075936;28;20000;-59
2022/01/09 07:43:12;;;;;;;;;;;20.00;37.40;;;;;;5076048;28;19908;-58
2022/01/09 07:45:39;;;;;;;;;;;20.00;37.40;;;;;;5075845;28;19909;-58
2022/01/09 07:48:04;;;;;;;;;;;20.00;37.40;;;;;;5075828;28;19916;-58
2022/01/09 07:50:30;;;;;;;;;;;20.00;37.40;;;;;;5075729;28;20283;-59
2022/01/09 07:52:55;;;;;;;;;;;20.00;37.40;;;;;;5076019;28;20001;-59
2022/01/09 07:55:22;;;;;;;;;;;20.00;37.40;;;;;;5075633;28;19923;-59
2022/01/09 07:57:47;;;;;;;;;;;20.00;37.40;;;;;;5074886;28;19919;-59
2022/01/09 08:00:13;;;;;;;;;;;20.00;37.40;;;;;;5075528;28;20291;-59
2022/01/09 08:02:39;;;;;;;;;;;20.10;37.40;;;;;;5075542;28;19909;-58
2022/01/09 08:05:05;;;;;;;;;;;20.00;37.40;;;;;;5075487;28;19916;-58
2022/01/09 08:07:30;;;;;;;;;;;20.10;37.40;;;;;;5075386;28;19909;-59
2022/01/09 08:09:56;;;;;;;;;;;20.10;37.40;;;;;;5075378;28;19922;-59
2022/01/09 08:12:21;;;;;;;;;;;20.10;37.40;;;;;;5075318;28;19909;-59
2022/01/09 08:14:47;;;;;;;;;;;20.10;37.40;;;;;;5075299;28;20339;-58
2022/01/09 08:17:13;;;;;;;;;;;20.10;37.40;;;;;;5075361;28;20268;-58
2022/01/09 08:19:39;;;;;;;;;;;20.10;37.40;;;;;;5075225;28;19966;-59
2022/01/09 08:22:06;;;;;;;;;;;20.10;37.40;;;;;;5075390;28;19908;-59
2022/01/09 08:24:32;;;;;;;;;;;20.10;37.30;;;;;;5075403;28;19965;-58
2022/01/09 08:26:58;;;;;;;;;;;20.10;37.40;;;;;;5075072;28;19951;-58
2022/01/09 08:29:23;;;;;;;;;;;20.20;37.40;;;;;;5075010;28;20005;-58
2022/01/09 08:31:49;;;;;;;;;;;20.10;37.40;;;;;;5074967;28;19908;-58
2022/01/09 08:34:14;;;;;;;;;;;20.20;37.30;;;;;;5074836;28;19912;-58
2022/01/09 08:36:40;;;;;;;;;;;20.10;37.40;;;;;;5074838;28;19955;-58
2022/01/09 08:39:05;;;;;;;;;;;20.20;37.40;;;;;;5075135;28;19916;-58
2022/01/09 08:41:31;;;;;;;;;;;20.20;37.30;;;;;;5074805;28;19955;-59
2022/01/09 08:43:57;;;;;;;;;;;20.20;37.30;;;;;;5056848;28;20433;-58
2022/01/09 08:46:22;;;;;;;;;;;20.20;37.30;;;;;;5074671;28;19909;-58
2022/01/09 08:48:49;;;;;;;;;;;20.20;37.30;;;;;;5074645;28;20279;-58
2022/01/09 08:51:14;;;;;;;;;;;20.20;37.30;;;;;;5074938;28;19931;-59
2022/01/09 08:53:41;;;;;;;;;;;20.20;37.30;;;;;;5074528;28;20348;-58
2022/01/09 08:56:07;;;;;;;;;;;20.20;37.30;;;;;;5074693;28;19975;-58
2022/01/09 08:58:33;;;;;;;;;;;20.20;37.30;;;;;;5074260;28;19916;-58
2022/01/09 09:00:58;;;;;;;;;;;20.30;37.30;;;;;;5074396;28;19916;-58
2022/01/09 09:03:24;;;;;;;;;;;20.30;37.30;;;;;;5074348;28;19909;-58
2022/01/09 09:05:49;;;;;;;;;;;20.30;37.30;;;;;;5072994;28;20029;-58
2022/01/09 09:08:15;;;;;;;;;;;20.30;37.30;;;;;;5074276;28;20062;-58
2022/01/09 09:10:40;;;;;;;;;;;20.30;37.30;;;;;;5074485;28;19908;-59
2022/01/09 09:13:06;;;;;;;;;;;20.30;37.30;;;;;;5074184;28;19909;-58
2022/01/09 09:15:32;;;;;;;;;;;20.30;37.30;;;;;;5056148;28;19923;-58
2022/01/09 09:17:57;;;;;;;;;;;20.30;37.30;;;;;;5074059;28;19915;-59
2022/01/09 09:20:23;;;;;;;;;;;20.30;37.30;;;;;;5073908;28;20007;-58
2022/01/09 09:22:49;;;;;;;;;;;20.40;37.30;;;;;;5073872;28;20299;-59
2022/01/09 09:25:14;;;;;;;;;;;20.30;37.30;;;;;;5073882;28;20368;-59
2022/01/09 09:27:40;;;;;;;;;;;20.30;37.30;;;;;;5073875;28;19978;-58
2022/01/09 09:30:06;;;;;;;;;;;20.30;37.30;;;;;;5072550;28;19908;-58
2022/01/09 09:32:32;;;;;;;;;;;20.40;37.30;;;;;;5072504;28;20322;-58
2022/01/09 09:34:57;;;;;;;;;;;20.40;37.20;;;;;;5073653;28;19921;-58
2022/01/09 09:37:23;;;;;;;;;;;20.40;37.30;;;;;;5073759;28;19908;-58
2022/01/09 09:39:51;;;;;;;;;;;20.40;37.30;;;;;;5073709;28;20003;-59
2022/01/09 09:42:17;;;;;;;;;;;20.40;37.20;;;;;;5073924;28;19908;-58
2022/01/09 09:44:43;;;;;;;;;;;20.40;37.20;;;;;;5073853;28;19908;-58
2022/01/09 09:47:09;;;;;;;;;;;20.40;37.20;;;;;;5073451;28;20303;-59
2022/01/09 09:49:35;;;;;;;;;;;20.40;37.20;;;;;;5073852;28;19909;-58
2022/01/09 09:52:00;;;;;;;;;;;20.40;37.20;;;;;;5073618;28;19909;-58
2022/01/09 09:54:25;;;;;;;;;;;20.50;37.20;;;;;;5073872;28;19912;-58
2022/01/09 09:56:52;;;;;;;;;;;20.50;37.20;;;;;;5073781;28;20387;-58
2022/01/09 09:59:25;;;;;;;;;;;20.40;37.20;;;;;;5073345;28;20019;-58
2022/01/09 10:01:50;;;;;;;;;;;20.50;37.20;;;;;;5073235;28;20390;-59
2022/01/09 10:04:16;;;;;;;;;;;20.50;37.20;;;;;;5055448;28;19909;-58
2022/01/09 10:06:41;;;;;;;;;;;20.50;37.20;;;;;;5073483;28;19908;-58
2022/01/09 10:09:08;;;;;;;;;;;20.50;37.20;;;;;;5055416;28;19920;-59
2022/01/09 10:11:51;;;;;;;;;;;20.50;37.20;;;;;;5073403;28;19962;-58
2022/01/09 10:14:20;;;;;;;;;;;20.50;37.20;;;;;;5073242;28;19962;-58
2022/01/09 10:17:04;;;;;;;;;;;20.50;37.20;;;;;;5073492;28;19915;-58
2022/01/09 10:19:41;;;;;;;;;;;20.50;37.10;;;;;;5073278;28;19916;-58
2022/01/09 10:22:20;;;;;;;;;;;20.50;37.20;;;;;;5078900;28;19913;-58
2022/01/09 10:24:45;;;;;;;;;;;20.50;37.20;;;;;;5079957;28;19962;-59
2022/01/09 10:27:11;;;;;;;;;;;20.50;37.20;;;;;;5079884;28;19913;-58
2022/01/09 10:29:36;;;;;;;;;;;20.50;37.20;;;;;;5080120;28;19916;-58
2022/01/09 10:32:02;;;;;;;;;;;20.50;37.20;;;;;;5079806;28;19944;-58
2022/01/09 10:34:27;;;;;;;;;;;20.50;37.20;;;;;;5079969;28;19919;-58
2022/01/09 10:36:53;;;;;;;;;;;20.50;37.20;;;;;;5079697;28;19916;-58
2022/01/09 10:39:26;;;;;;;;;;;20.50;37.20;;;;;;5079631;28;19909;-58
2022/01/09 10:41:52;;;;;;;;;;;20.50;37.10;;;;;;5079695;28;19940;-59
2022/01/09 10:44:18;;;;;;;;;;;20.50;37.20;;;;;;5079782;28;20355;-59
2022/01/09 10:46:54;;;;;;;;;;;20.50;37.20;;;;;;5079861;28;19962;-59
2022/01/09 10:49:19;;;;;;;;;;;20.50;37.20;;;;;;5079658;28;19908;-59
2022/01/09 10:51:44;;;;;;;;;;;20.60;37.20;;;;;;5079717;28;19915;-59
2022/01/09 10:54:10;;;;;;;;;;;20.60;37.20;;;;;;5079599;28;19916;-58
2022/01/09 10:56:35;;;;;;;;;;;20.60;37.20;;;;;;5079629;28;19919;-59
2022/01/09 10:59:01;;;;;;;;;;;20.60;37.20;;;;;;5079343;28;19928;-58
2022/01/09 11:01:27;;;;;;;;;;;20.60;37.20;;;;;;5079794;28;19916;-59
2022/01/09 11:03:54;;;;;;;;;;;20.60;37.20;;;;;;5079372;28;20395;-59
2022/01/09 11:06:20;;;;;;;;;;;20.60;37.20;;;;;;5061354;28;20275;-58
2022/01/09 11:08:47;;;;;;;;;;;20.70;37.10;;;;;;5078941;28;21229;-59
2022/01/09 11:11:23;;;;;;;;;;;20.70;37.10;;;;;;5079477;28;19916;-58
2022/01/09 11:13:49;;;;;;;;;;;20.70;37.10;;;;;;5079481;28;19909;-58
2022/01/09 11:16:34;;;;;;;;;;;20.70;37.10;;;;;;5079394;28;20008;-58
2022/01/09 11:19:01;;;;;;;;;;;20.70;37.10;;;;;;5079379;28;19930;-59
2022/01/09 11:21:27;;;;;;;;;;;20.70;37.10;;;;;;5061623;28;19915;-58
2022/01/09 11:24:11;;;;;;;;;;;20.70;37.10;;;;;;5079347;28;19914;-58
2022/01/09 11:26:46;;;;;;;;;;;20.70;37.10;;;;;;5061382;28;19908;-58
2022/01/09 11:29:13;;;;;;;;;;;20.70;37.10;;;;;;5079285;28;19908;-58
2022/01/09 11:31:45;;;;;;;;;;;20.70;37.10;;;;;;5078875;28;19908;-58
2022/01/09 11:34:19;;;;;;;;;;;20.70;37.10;;;;;;5075123;28;19964;-59
2022/01/09 11:36:45;;;;;;;;;;;20.70;37.10;;;;;;5058155;28;19913;-59
2022/01/09 11:39:24;;;;;;;;;;;20.70;37.10;;;;;;5076037;28;19908;-59
2022/01/09 11:42:09;;;;;;;;;;;20.70;37.10;;;;;;5075922;28;19908;-59
2022/01/09 11:44:35;;;;;;;;;;;20.70;37.10;;;;;;5076533;28;19930;-58
2022/01/09 11:47:02;;;;;;;;;;;20.70;37.10;;;;;;5075929;28;20368;-58
2022/01/09 11:49:29;;;;;;;;;;;20.70;37.10;;;;;;5075825;28;19912;-58
2022/01/09 11:51:56;;;;;;;;;;;20.80;37.10;;;;;;5057996;28;19913;-58
2022/01/09 11:54:22;;;;;;;;;;;20.80;37.10;;;;;;5075613;28;19920;-59
2022/01/09 11:56:49;;;;;;;;;;;20.80;37.10;;;;;;5075894;28;19923;-59
2022/01/09 11:59:18;;;;;;;;;;;20.80;37.10;;;;;;5075717;28;19974;-59
2022/01/09 12:01:44;;;;;;;;;;;20.80;37.10;;;;;;5075546;28;19919;-58
2022/01/09 12:04:28;;;;;;;;;;;20.80;37.10;;;;;;5075526;28;19918;-59
2022/01/09 12:06:56;;;;;;;;;;;20.80;37.10;;;;;;5075681;28;19909;-59
2022/01/09 12:09:35;;;;;;;;;;;20.80;37.10;;;;;;5075765;28;19908;-58
2022/01/09 12:12:03;;;;;;;;;;;20.80;37.10;;;;;;5074119;28;19909;-58
2022/01/09 12:14:41;;;;;;;;;;;20.80;37.10;;;;;;5057026;28;19912;-59
2022/01/09 12:17:07;;;;;;;;;;;20.80;37.10;;;;;;5075617;28;19998;-58
2022/01/09 12:19:51;;;;;;;;;;;20.80;37.10;;;;;;5075253;28;19936;-58
2022/01/09 12:22:36;;;;;;;;;;;20.80;37.10;;;;;;5057073;28;20316;-59
2022/01/09 12:25:02;;;;;;;;;;;20.80;37.10;;;;;;5074907;28;20413;-58
2022/01/09 12:27:43;;;;;;;;;;;20.80;37.10;;;;;;5075033;28;19913;-59
2022/01/09 12:30:10;;;;;;;;;;;20.80;37.10;;;;;;5073804;28;20322;-59
2022/01/09 12:32:38;;;;;;;;;;;20.80;37.10;;;;;;5074949;28;19909;-59
2022/01/09 12:35:17;;;;;;;;;;;20.80;37.10;;;;;;5074837;28;19916;-59
2022/01/09 12:38:03;;;;;;;;;;;20.80;37.10;;;;;;5074959;28;19913;-59
2022/01/09 12:40:30;;;;;;;;;;;20.90;37.10;;;;;;5074494;28;19908;-58
2022/01/09 12:42:57;;;;;;;;;;;20.90;37.10;;;;;;5074593;28;19916;-59
2022/01/09 12:45:24;;;;;;;;;;;20.90;37.00;;;;;;5074477;28;19908;-59
2022/01/09 12:47:49;;;;;;;;;;;20.90;37.00;;;;;;5074579;28;20237;-58
2022/01/09 12:50:15;;;;;;;;;;;20.90;37.10;;;;;;5074566;28;19909;-59
2022/01/09 12:52:40;;;;;;;;;;;20.90;37.10;;;;;;5074597;28;20276;-59
2022/01/09 12:55:07;;;;;;;;;;;20.90;37.10;;;;;;5074588;28;20253;-59
2022/01/09 12:57:49;;;;;;;;;;;20.90;37.10;;;;;;5074350;28;19916;-59
2022/01/09 13:00:14;;;;;;;;;;;20.80;37.10;;;;;;5074142;28;19927;-58
2022/01/09 13:02:40;;;;;;;;;;;20.80;37.10;;;;;;5074372;28;19908;-59
2022/01/09 13:05:05;;;;;;;;;;;20.90;37.10;;;;;;5074216;28;19947;-58
2022/01/09 13:07:31;;;;;;;;;;;20.90;37.10;;;;;;5074151;28;19958;-59
2022/01/09 13:09:56;;;;;;;;;;;20.90;37.00;;;;;;5074302;28;19959;-59
2022/01/09 13:12:23;;;;;;;;;;;20.90;37.00;;;;;;5074427;28;19908;-58
2022/01/09 13:14:48;;;;;;;;;;;20.90;37.00;;;;;;5074152;28;19912;-59
2022/01/09 13:17:16;;;;;;;;;;;21.00;37.10;;;;;;5074341;28;19912;-58
2022/01/09 13:19:41;;;;;;;;;;;20.90;37.00;;;;;;5073998;28;19908;-60
2022/01/09 13:22:07;;;;;;;;;;;20.90;37.10;;;;;;5074169;28;19909;-59
2022/01/09 13:24:32;;;;;;;;;;;20.90;37.00;;;;;;5073988;28;20383;-58
2022/01/09 13:27:01;;;;;;;;;;;20.90;37.00;;;;;;5074127;28;19983;-58
2022/01/09 13:29:34;;;;;;;;;;;21.00;37.00;;;;;;5074094;28;19916;-58
2022/01/09 13:32:01;;;;;;;;;;;21.00;37.00;;;;;;5073777;28;20479;-58
2022/01/09 13:34:34;;;;;;;;;;;21.00;37.00;;;;;;5073571;28;19927;-59
2022/01/09 13:37:01;;;;;;;;;;;20.90;37.00;;;;;;5073993;28;20275;-59
2022/01/09 13:39:28;;;;;;;;;;;21.00;37.00;;;;;;5073787;28;19999;-57
2022/01/09 13:41:57;;;;;;;;;;;21.00;37.00;;;;;;5073725;28;19909;-60
2022/01/09 13:44:33;;;;;;;;;;;21.00;37.00;;;;;;5073736;28;19915;-58
2022/01/09 13:47:01;;;;;;;;;;;21.00;37.00;;;;;;5073680;28;19908;-58
2022/01/09 13:49:27;;;;;;;;;;;21.00;37.00;;;;;;5073638;28;20418;-58
2022/01/09 13:51:53;;;;;;;;;;;21.00;36.90;;;;;;5073649;28;19962;-59
2022/01/09 13:54:20;;;;;;;;;;;21.00;37.00;;;;;;5073771;28;19920;-59
2022/01/09 13:56:57;;;;;;;;;;;21.00;37.00;;;;;;5072621;28;20061;-58
2022/01/09 13:59:32;;;;;;;;;;;21.00;36.90;;;;;;5073237;28;20376;-60
2022/01/09 14:01:59;;;;;;;;;;;21.00;36.90;;;;;;5073433;28;19919;-59
2022/01/09 14:04:24;;;;;;;;;;;21.00;36.90;;;;;;5073677;28;19958;-58
2022/01/09 14:06:59;;;;;;;;;;;21.00;36.90;;;;;;5073552;28;19915;-59
2022/01/09 14:09:28;;;;;;;;;;;21.00;36.90;;;;;;5073305;28;19908;-60
2022/01/09 14:12:13;;;;;;;;;;;21.00;37.00;;;;;;5073506;28;19958;-59
2022/01/09 14:14:38;;;;;;;;;;;21.00;36.90;;;;;;5073451;28;20074;-59